HiltRWIS Atmospheric Data: 05/15/2019 Summary  Detailed Graphs  Station List

  Temperature     Wind Precipitation Visibility
Timestamp Air Wet
Bulb
Dew-
point
24-hr
Max
24-hr
Min
Relative
Humidity
Atmospheric
Pressure
Avg
Speed
Avg
Dir
Spot
Speed
Spot
Dir
Max
Speed
Max
Dir
  Rate Situation Start End 1 hr 3 hr 6 hr 12 hr 24 hr   Situation
Date Time °F °F °F °F °F % in Hg mph ° mph ° mph ° Y/N in/hr text Date Time Date Time in in in in in mi text
05/15/2019 12:13 AM 50.00 48.02 46.40 79.34 42.26 87.0 Not Reported 2.01 NE 2.91 NE 2.01 NE No 0.000 No Precipitation 05/14/2019 05:48 AM 05/14/2019 05:53 AM 0.000 0.000 0.000 0.004 0.004 Not Reported Not Reported
05/15/2019 12:28 AM 50.18 48.20 46.40 79.34 42.26 86.0 Not Reported 1.34 NE 0.67 E 4.03 NE No 0.000 No Precipitation 05/14/2019 05:48 AM 05/14/2019 05:53 AM 0.000 0.000 0.000 0.004 0.004 Not Reported Not Reported
05/15/2019 12:45 AM 50.00 48.02 46.22 79.34 42.26 86.0 Not Reported 1.12 E 1.12 NE 1.79 NE No 0.000 No Precipitation 05/14/2019 05:48 AM 05/14/2019 05:53 AM 0.000 0.000 0.000 0.004 0.004 Not Reported Not Reported
05/15/2019 12:56 AM 50.18 48.20 46.40 79.34 42.26 86.0 Not Reported 0.67 E 0.22 E 2.46 NE No 0.000 No Precipitation 05/14/2019 05:48 AM 05/14/2019 05:53 AM 0.000 0.000 0.000 0.004 0.004 Not Reported Not Reported
05/15/2019 01:13 AM 50.36 48.38 46.58 61.16 48.92 86.0 Not Reported 0.00 N 0.00 NW 2.01 NE No 0.000 No Precipitation 05/14/2019 05:48 AM 05/14/2019 05:53 AM 0.000 0.000 0.000 0.004 0.004 Not Reported Not Reported
05/15/2019 01:27 AM 50.18 48.20 46.40 61.16 48.92 86.0 Not Reported 0.67 NE 0.00 NE 0.00 W No 0.000 No Precipitation 05/14/2019 05:48 AM 05/14/2019 05:53 AM 0.000 0.000 0.000 0.004 0.004 Not Reported Not Reported
05/15/2019 01:41 AM 49.82 47.84 46.04 61.16 48.92 87.0 Not Reported 0.67 E 0.89 NE 1.34 NE No 0.000 No Precipitation 05/14/2019 05:48 AM 05/14/2019 05:53 AM 0.000 0.000 0.000 0.004 0.004 Not Reported Not Reported
05/15/2019 02:00 AM 49.82 47.84 46.04 61.16 48.92 86.0 Not Reported 1.57 E 1.12 E 2.46 E No 0.000 No Precipitation 05/14/2019 05:48 AM 05/14/2019 05:53 AM 0.000 0.000 0.000 0.000 0.004 Not Reported Not Reported
05/15/2019 02:11 AM 49.82 47.84 46.04 61.16 48.92 86.0 Not Reported 0.22 NW 0.22 NE 1.79 E No 0.000 No Precipitation 05/14/2019 05:48 AM 05/14/2019 05:53 AM 0.000 0.000 0.000 0.000 0.004 Not Reported Not Reported
05/15/2019 02:27 AM 50.00 48.02 46.22 61.16 48.92 86.0 Not Reported 0.00 N 0.00 S 2.24 NE No 0.000 No Precipitation 05/14/2019 05:48 AM 05/14/2019 05:53 AM 0.000 0.000 0.000 0.000 0.004 Not Reported Not Reported
05/15/2019 02:44 AM 50.54 48.38 46.58 61.16 48.92 86.0 Not Reported 0.89 NW 2.01 NW 1.79 W No 0.000 No Precipitation 05/14/2019 05:48 AM 05/14/2019 05:53 AM 0.000 0.000 0.000 0.000 0.004 Not Reported Not Reported
05/15/2019 02:58 AM 50.00 48.02 46.22 61.16 48.92 86.0 Not Reported 0.89 SE 1.12 E 2.01 NW No 0.000 No Precipitation 05/14/2019 05:48 AM 05/14/2019 05:53 AM 0.000 0.000 0.000 0.000 0.004 Not Reported Not Reported
05/15/2019 03:11 AM 50.00 48.02 46.22 61.16 48.92 86.0 Not Reported 0.67 S 0.00 NW 2.24 E No 0.000 No Precipitation 05/14/2019 05:48 AM 05/14/2019 05:53 AM 0.000 0.000 0.000 0.000 0.004 Not Reported Not Reported
05/15/2019 03:26 AM 50.00 48.02 46.22 61.16 48.92 86.0 Not Reported 0.45 NE 0.67 NE 1.57 SW No 0.000 No Precipitation 05/14/2019 05:48 AM 05/14/2019 05:53 AM 0.000 0.000 0.000 0.000 0.004 Not Reported Not Reported
05/15/2019 03:41 AM 49.82 48.02 46.40 61.16 48.92 87.0 Not Reported 0.00 N 0.22 NW 0.45 NE No 0.000 No Precipitation 05/14/2019 05:48 AM 05/14/2019 05:53 AM 0.000 0.000 0.000 0.000 0.004 Not Reported Not Reported
05/15/2019 03:57 AM 49.46 47.84 46.22 61.16 48.92 88.0 Not Reported 1.79 E 2.24 E 0.89 E No 0.000 No Precipitation 05/14/2019 05:48 AM 05/14/2019 05:53 AM 0.000 0.000 0.000 0.000 0.004 Not Reported Not Reported
05/15/2019 04:11 AM 49.64 47.84 46.40 61.16 48.92 88.0 Not Reported 1.79 E 0.89 NE 2.68 E No 0.000 No Precipitation 05/14/2019 05:48 AM 05/14/2019 05:53 AM 0.000 0.000 0.000 0.000 0.004 Not Reported Not Reported
05/15/2019 04:27 AM 49.64 47.84 46.40 61.16 48.92 88.0 Not Reported 0.89 SE 1.12 SE 2.01 E No 0.000 No Precipitation 05/14/2019 05:48 AM 05/14/2019 05:53 AM 0.000 0.000 0.000 0.000 0.004 Not Reported Not Reported
05/15/2019 04:41 AM 49.82 48.02 46.40 61.16 48.92 88.0 Not Reported 0.22 SW 0.89 N 2.01 SE No 0.000 No Precipitation 05/14/2019 05:48 AM 05/14/2019 05:53 AM 0.000 0.000 0.000 0.000 0.004 Not Reported Not Reported
05/15/2019 04:57 AM 50.18 48.56 47.12 61.16 48.92 89.0 Not Reported 0.45 NW 0.00 W 2.01 N No 0.000 No Precipitation 05/14/2019 05:48 AM 05/14/2019 05:53 AM 0.000 0.000 0.000 0.000 0.004 Not Reported Not Reported
05/15/2019 05:13 AM 49.28 47.84 46.76 61.16 48.92 90.0 Not Reported 2.24 NE 0.89 NE 3.13 NE No 0.000 No Precipitation 05/14/2019 05:48 AM 05/14/2019 05:53 AM 0.000 0.000 0.000 0.000 0.004 Not Reported Not Reported
05/15/2019 05:30 AM 49.46 47.84 46.58 61.16 48.92 89.0 Not Reported 2.68 E 3.36 E 3.36 NE No 0.000 No Precipitation 05/14/2019 05:48 AM 05/14/2019 05:53 AM 0.000 0.000 0.000 0.000 0.004 Not Reported Not Reported
05/15/2019 05:41 AM 49.46 47.84 46.40 61.16 48.92 89.0 Not Reported 1.79 NE 1.12 NE 3.58 E No 0.000 No Precipitation 05/14/2019 05:48 AM 05/14/2019 05:53 AM 0.000 0.000 0.000 0.000 0.004 Not Reported Not Reported
05/15/2019 05:59 AM 49.46 47.84 46.40 61.16 48.92 88.0 Not Reported 1.57 E 1.12 NE 2.01 NE No 0.000 No Precipitation 05/14/2019 05:48 AM 05/14/2019 05:53 AM 0.000 0.000 0.000 0.000 0.004 Not Reported Not Reported
05/15/2019 06:11 AM 49.28 47.66 46.22 61.16 48.92 88.0 Not Reported 1.12 E 0.89 NE 2.01 NE No 0.000 No Precipitation 05/14/2019 05:48 AM 05/14/2019 05:53 AM 0.000 0.000 0.000 0.000 0.004 Not Reported Not Reported
05/15/2019 06:27 AM 49.10 47.48 46.04 61.16 48.92 89.0 Not Reported 0.22 NE 0.45 N 2.01 E No 0.000 No Precipitation 05/14/2019 05:48 AM 05/14/2019 05:53 AM 0.000 0.000 0.000 0.000 0.004 Not Reported Not Reported
05/15/2019 06:57 AM 48.74 47.48 46.22 61.16 48.92 90.0 Not Reported 0.89 S 0.00 E 0.89 E No 0.000 No Precipitation 05/14/2019 05:48 AM 05/14/2019 05:53 AM 0.000 0.000 0.000 0.000 0.004 Not Reported Not Reported
05/15/2019 07:15 AM 49.10 47.84 46.58 61.16 48.92 91.0 Not Reported 1.12 SE 2.24 S 2.46 SW No 0.000 No Precipitation 05/14/2019 05:48 AM 05/14/2019 05:53 AM 0.000 0.000 0.000 0.000 0.004 Not Reported Not Reported
05/15/2019 07:28 AM 49.10 47.84 46.58 61.16 48.92 91.0 Not Reported 0.00 N 0.00 SW 2.24 S No 0.000 No Precipitation 05/14/2019 11:20 PM 05/14/2019 11:25 PM 0.004 0.004 0.004 0.004 0.008 Not Reported Not Reported
05/15/2019 07:42 AM 49.10 47.84 46.76 61.16 48.92 91.0 Not Reported 0.00 N 0.45 E 0.89 W No 0.000 No Precipitation 05/14/2019 11:20 PM 05/14/2019 11:25 PM 0.004 0.004 0.004 0.004 0.008 Not Reported Not Reported
05/15/2019 07:57 AM 49.64 48.38 47.30 61.16 48.92 91.0 Not Reported 0.89 E 0.45 E 2.24 E No 0.000 No Precipitation 05/14/2019 11:20 PM 05/14/2019 11:25 PM 0.004 0.004 0.004 0.004 0.008 Not Reported Not Reported
05/15/2019 08:11 AM 50.90 48.56 46.58 61.16 48.92 84.0 Not Reported 1.34 SE 1.12 S 4.92 SE No 0.000 No Precipitation 05/14/2019 11:59 PM 05/15/2019 12:04 AM 0.008 0.008 0.008 0.008 0.012 Not Reported Not Reported
05/15/2019 08:29 AM 50.00 48.56 47.30 61.16 48.92 90.0 Not Reported 2.24 NW 0.89 E 3.36 NW No 0.000 No Precipitation 05/14/2019 11:59 PM 05/15/2019 12:04 AM 0.004 0.008 0.008 0.008 0.012 Not Reported Not Reported
05/15/2019 08:58 AM 50.54 49.10 47.66 61.16 48.92 89.0 Not Reported 3.80 NW 2.46 NW 2.01 E No 0.000 No Precipitation 05/14/2019 11:59 PM 05/15/2019 12:04 AM 0.004 0.008 0.008 0.008 0.012 Not Reported Not Reported
05/15/2019 09:12 AM 50.72 49.28 47.84 61.16 48.92 89.0 Not Reported 2.68 NW 1.12 N 3.80 NW No 0.000 No Precipitation 05/14/2019 11:59 PM 05/15/2019 12:04 AM 0.000 0.008 0.008 0.008 0.012 Not Reported Not Reported
05/15/2019 09:30 AM 51.44 49.82 48.56 61.16 48.92 89.0 Not Reported 0.45 N 0.22 NW 2.01 NW Yes 0.043 Rain Slight 05/15/2019 01:27 AM   0.008 0.016 0.016 0.016 0.020 Not Reported Not Reported
05/15/2019 09:42 AM 51.44 50.18 48.74 61.16 48.92 90.0 Not Reported 1.79 W 0.00 N 2.46 W No 0.000 No Precipitation 05/15/2019 01:35 AM 05/15/2019 01:40 AM 0.012 0.020 0.020 0.020 0.024 Not Reported Not Reported
05/15/2019 09:56 AM 51.44 50.36 49.10 61.16 48.92 91.0 Not Reported 0.89 W 1.34 NW 2.46 W Yes 0.043 Rain Slight 05/15/2019 01:49 AM   0.024 0.031 0.031 0.031 0.035 Not Reported Not Reported
05/15/2019 10:12 AM 50.90 49.82 48.74 61.16 48.92 91.0 Not Reported 1.12 W 2.91 W 2.68 W Yes 0.085 Rain Moderate 05/15/2019 01:49 AM   0.051 0.059 0.059 0.059 0.063 Not Reported Not Reported
05/15/2019 10:26 AM 50.72 49.46 48.56 61.16 48.92 92.0 Not Reported 1.34 SW 4.70 S 2.91 W Yes 0.085 Rain Moderate 05/15/2019 01:49 AM   0.075 0.083 0.087 0.087 0.091 Not Reported Not Reported
05/15/2019 10:42 AM 50.90 49.64 48.74 61.16 48.92 92.0 Not Reported 2.01 S 1.34 S 3.13 S Yes 0.043 Rain Slight 05/15/2019 01:49 AM   0.091 0.102 0.106 0.106 0.110 Not Reported Not Reported
05/15/2019 10:59 AM 50.00 48.92 48.20 61.16 48.92 92.0 Not Reported 3.80 S 3.80 SE 3.13 SW No 0.000 No Precipitation 05/15/2019 01:49 AM 05/15/2019 02:52 AM 0.087 0.114 0.118 0.118 0.122 Not Reported Not Reported
05/15/2019 11:14 AM 51.26 48.56 46.04 61.16 48.92 82.0 Not Reported 2.91 E 2.91 SE 6.49 SE No 0.000 No Precipitation 05/15/2019 01:49 AM 05/15/2019 02:52 AM 0.059 0.110 0.118 0.118 0.122 Not Reported Not Reported
05/15/2019 11:27 AM 51.80 48.20 44.78 61.16 48.92 77.0 Not Reported 5.37 SE 6.26 E 8.50 SE No 0.000 No Precipitation 05/15/2019 01:49 AM 05/15/2019 02:52 AM 0.035 0.110 0.118 0.118 0.122 Not Reported Not Reported
05/15/2019 11:41 AM 52.88 49.46 46.58 61.16 48.92 78.0 Not Reported 5.14 S 7.83 S 6.93 S No 0.000 No Precipitation 05/15/2019 01:49 AM 05/15/2019 02:52 AM 0.012 0.110 0.118 0.118 0.122 Not Reported Not Reported
05/15/2019 11:58 AM 53.42 49.46 45.86 61.16 48.92 75.0 Not Reported 7.61 S 10.74 SE 9.84 E No 0.000 No Precipitation 05/15/2019 01:49 AM 05/15/2019 02:52 AM 0.000 0.110 0.118 0.118 0.122 Not Reported Not Reported
05/15/2019 12:12 PM 52.88 48.38 44.42 61.16 48.92 72.0 Not Reported 7.83 SE 7.61 SE 12.53 S No 0.000 No Precipitation 05/15/2019 01:49 AM 05/15/2019 02:52 AM 0.000 0.110 0.118 0.118 0.122 Not Reported Not Reported
05/15/2019 12:27 PM 53.78 49.10 44.96 61.16 48.92 72.0 Not Reported 8.50 S 8.05 S 14.32 S No 0.000 No Precipitation 05/15/2019 01:49 AM 05/15/2019 02:52 AM 0.000 0.106 0.118 0.118 0.122 Not Reported Not Reported
05/15/2019 12:41 PM 54.68 50.00 45.86 61.16 48.92 71.0 Not Reported 7.38 SE 14.32 S 10.96 S No 0.000 No Precipitation 05/15/2019 01:49 AM 05/15/2019 02:52 AM 0.000 0.098 0.118 0.118 0.122 Not Reported Not Reported
05/15/2019 01:11 PM 54.86 49.10 43.88 61.16 48.92 66.0 Not Reported 8.05 SE 2.91 S 10.07 S No 0.000 No Precipitation 05/15/2019 01:49 AM 05/15/2019 02:52 AM 0.000 0.063 0.118 0.118 0.122 Not Reported Not Reported
05/15/2019 01:29 PM 54.68 48.74 42.98 61.16 48.92 64.0 Not Reported 4.25 S 3.58 E 8.72 S No 0.000 No Precipitation 05/15/2019 01:49 AM 05/15/2019 02:52 AM 0.000 0.031 0.114 0.118 0.122 Not Reported Not Reported
05/15/2019 01:41 PM 54.86 48.38 42.26 61.16 48.92 62.0 Not Reported 4.92 SE 4.92 SE 9.40 S No 0.000 No Precipitation 05/15/2019 01:49 AM 05/15/2019 02:52 AM 0.000 0.012 0.114 0.118 0.122 Not Reported Not Reported
05/15/2019 01:57 PM 55.40 48.56 42.08 61.16 48.92 60.0 Not Reported 6.71 S 7.83 S 10.07 S No 0.000 No Precipitation 05/15/2019 01:49 AM 05/15/2019 02:52 AM 0.000 0.000 0.114 0.118 0.118 Not Reported Not Reported
05/15/2019 02:12 PM 56.48 48.74 41.54 61.16 48.92 57.0 Not Reported 8.95 S 12.53 S 13.87 S No 0.000 No Precipitation 05/15/2019 01:49 AM 05/15/2019 02:52 AM 0.000 0.000 0.110 0.118 0.118 Not Reported Not Reported
05/15/2019 02:27 PM 57.02 49.28 41.72 61.16 48.92 56.0 Not Reported 4.03 SE 6.71 SE 12.97 S No 0.000 No Precipitation 05/15/2019 01:49 AM 05/15/2019 02:52 AM 0.000 0.000 0.110 0.118 0.118 Not Reported Not Reported
05/15/2019 02:43 PM 58.28 50.00 42.62 61.16 48.92 55.0 Not Reported 5.82 S 8.95 S 9.17 S No 0.000 No Precipitation 05/15/2019 01:49 AM 05/15/2019 02:52 AM 0.000 0.000 0.110 0.118 0.118 Not Reported Not Reported
05/15/2019 03:00 PM 58.82 50.36 43.70 61.16 48.92 54.0 Not Reported 12.53 S 8.50 S 13.87 S No 0.000 No Precipitation 05/15/2019 01:49 AM 05/15/2019 02:52 AM 0.000 0.000 0.110 0.118 0.118 Not Reported Not Reported
05/15/2019 03:12 PM 57.74 49.64 42.08 61.16 48.92 55.0 Not Reported 6.04 S 9.17 SE 13.42 SE No 0.000 No Precipitation 05/15/2019 01:49 AM 05/15/2019 02:52 AM 0.000 0.000 0.110 0.118 0.118 Not Reported Not Reported
05/15/2019 03:29 PM 58.64 50.18 42.08 61.16 48.92 54.0 Not Reported 7.16 S 10.74 S 12.97 S No 0.000 No Precipitation 05/15/2019 01:49 AM 05/15/2019 02:52 AM 0.000 0.000 0.102 0.118 0.118 Not Reported Not Reported
05/15/2019 03:42 PM 59.18 50.54 42.62 61.16 48.92 53.0 Not Reported 13.42 S 12.97 S 15.88 S No 0.000 No Precipitation 05/15/2019 01:49 AM 05/15/2019 02:52 AM 0.000 0.000 0.098 0.118 0.118 Not Reported Not Reported
05/15/2019 03:58 PM 57.20 49.46 41.90 61.16 48.92 56.0 Not Reported 5.37 SE 6.04 SE 14.32 S No 0.000 No Precipitation 05/15/2019 01:49 AM 05/15/2019 02:52 AM 0.000 0.000 0.087 0.118 0.118 Not Reported Not Reported
05/15/2019 04:13 PM 59.36 50.36 41.90 61.16 48.92 52.0 Not Reported 7.16 SE 11.41 S 11.41 S No 0.000 No Precipitation 05/15/2019 01:49 AM 05/15/2019 02:52 AM 0.000 0.000 0.063 0.118 0.118 Not Reported Not Reported
05/15/2019 04:26 PM 59.90 50.54 42.44 61.16 48.92 50.0 Not Reported 6.71 S 8.05 S 13.87 S No 0.000 No Precipitation 05/15/2019 01:49 AM 05/15/2019 02:52 AM 0.000 0.000 0.035 0.118 0.118 Not Reported Not Reported
05/15/2019 05:12 PM 60.08 50.72 42.08 61.16 48.92 51.0 Not Reported 8.72 S 9.62 S 11.86 S No 0.000 No Precipitation 05/15/2019 01:49 AM 05/15/2019 02:52 AM 0.000 0.000 0.000 0.118 0.118 Not Reported Not Reported
05/15/2019 05:26 PM 61.88 51.44 42.08 61.16 48.92 48.0 Not Reported 8.50 S 10.29 S 11.63 S No 0.000 No Precipitation 05/15/2019 01:49 AM 05/15/2019 02:52 AM 0.000 0.000 0.000 0.118 0.118 Not Reported Not Reported
05/15/2019 05:42 PM 60.62 51.08 42.26 61.16 48.92 49.0 Not Reported 6.49 S 9.62 S 13.65 S No 0.000 No Precipitation 05/15/2019 01:49 AM 05/15/2019 02:52 AM 0.000 0.000 0.000 0.118 0.118 Not Reported Not Reported
05/15/2019 05:58 PM 59.90 50.72 41.72 61.16 48.92 51.0 Not Reported 12.08 S 11.41 S 12.75 S No 0.000 No Precipitation 05/15/2019 01:49 AM 05/15/2019 02:52 AM 0.000 0.000 0.000 0.118 0.118 Not Reported Not Reported
05/15/2019 06:11 PM 59.90 50.72 42.26 61.16 48.92 52.0 Not Reported 8.72 S 6.49 S 12.30 S No 0.000 No Precipitation 05/15/2019 01:49 AM 05/15/2019 02:52 AM 0.000 0.000 0.000 0.118 0.118 Not Reported Not Reported
05/15/2019 06:26 PM 59.18 50.54 42.44 61.16 48.92 53.0 Not Reported 6.04 SE 7.83 S 13.42 S No 0.000 No Precipitation 05/15/2019 01:49 AM 05/15/2019 02:52 AM 0.000 0.000 0.000 0.118 0.118 Not Reported Not Reported
05/15/2019 06:42 PM 58.64 50.00 41.72 61.16 48.92 53.0 Not Reported 13.87 S 12.97 S 13.65 S No 0.000 No Precipitation 05/15/2019 01:49 AM 05/15/2019 02:52 AM 0.000 0.000 0.000 0.118 0.118 Not Reported Not Reported
05/15/2019 06:57 PM 58.10 50.00 42.44 61.16 48.92 55.0 Not Reported 6.26 S 9.62 SE 15.88 S No 0.000 No Precipitation 05/15/2019 01:49 AM 05/15/2019 02:52 AM 0.000 0.000 0.000 0.118 0.118 Not Reported Not Reported
05/15/2019 07:12 PM 58.64 50.18 42.26 61.16 48.92 54.0 Not Reported 6.04 SW 10.51 S 12.08 S No 0.000 No Precipitation 05/15/2019 01:49 AM 05/15/2019 02:52 AM 0.000 0.000 0.000 0.118 0.118 Not Reported Not Reported
05/15/2019 07:29 PM 57.92 50.00 42.80 61.16 48.92 56.0 Not Reported 9.62 S 10.74 S 10.51 S No 0.000 No Precipitation 05/15/2019 01:49 AM 05/15/2019 02:52 AM 0.000 0.000 0.000 0.114 0.118 Not Reported Not Reported
05/15/2019 07:41 PM 57.20 49.64 42.62 61.16 48.92 58.0 Not Reported 14.09 S 7.16 SE 17.90 S No 0.000 No Precipitation 05/15/2019 01:49 AM 05/15/2019 02:52 AM 0.000 0.000 0.000 0.114 0.118 Not Reported Not Reported
05/15/2019 07:57 PM 56.30 49.46 42.98 61.16 48.92 60.0 Not Reported 10.74 S 7.83 SE 15.66 S No 0.000 No Precipitation 05/15/2019 01:49 AM 05/15/2019 02:52 AM 0.000 0.000 0.000 0.114 0.118 Not Reported Not Reported
05/15/2019 08:13 PM 56.48 49.64 43.52 61.16 48.92 61.0 Not Reported 9.84 S 8.95 SE 13.87 S No 0.000 No Precipitation 05/15/2019 01:49 AM 05/15/2019 02:52 AM 0.000 0.000 0.000 0.110 0.118 Not Reported Not Reported
05/15/2019 08:27 PM 55.58 49.10 43.16 61.16 48.92 62.0 Not Reported 6.93 S 11.86 S 12.30 S No 0.000 No Precipitation 05/15/2019 01:49 AM 05/15/2019 02:52 AM 0.000 0.000 0.000 0.110 0.118 Not Reported Not Reported
05/15/2019 08:42 PM 55.40 48.92 42.80 61.16 48.92 62.0 Not Reported 4.92 S 6.26 S 8.50 SE No 0.000 No Precipitation 05/15/2019 01:49 AM 05/15/2019 02:52 AM 0.000 0.000 0.000 0.110 0.118 Not Reported Not Reported
05/15/2019 08:58 PM 54.68 48.20 42.08 61.16 48.92 62.0 Not Reported 5.82 S 5.14 S 11.18 E No 0.000 No Precipitation 05/15/2019 01:49 AM 05/15/2019 02:52 AM 0.000 0.000 0.000 0.110 0.118 Not Reported Not Reported
05/15/2019 09:12 PM 54.50 48.02 41.90 61.16 48.92 61.0 Not Reported 7.16 S 12.75 S 10.29 E No 0.000 No Precipitation 05/15/2019 01:49 AM 05/15/2019 02:52 AM 0.000 0.000 0.000 0.110 0.118 Not Reported Not Reported
05/15/2019 09:28 PM 55.04 47.66 40.10 61.16 48.92 57.0 Not Reported 15.43 S 17.67 S 12.75 S No 0.000 No Precipitation 05/15/2019 01:49 AM 05/15/2019 02:52 AM 0.000 0.000 0.000 0.102 0.118 Not Reported Not Reported
05/15/2019 09:42 PM 53.96 47.48 41.00 61.16 48.92 61.0 Not Reported 8.28 S 6.93 SE 17.22 S No 0.000 No Precipitation 05/15/2019 01:49 AM 05/15/2019 02:52 AM 0.000 0.000 0.000 0.098 0.118 Not Reported Not Reported
05/15/2019 09:57 PM 53.78 47.66 41.54 61.16 48.92 62.0 Not Reported 6.26 S 3.36 E 11.41 SE No 0.000 No Precipitation 05/15/2019 01:49 AM 05/15/2019 02:52 AM 0.000 0.000 0.000 0.091 0.118 Not Reported Not Reported
05/15/2019 10:13 PM 53.78 47.66 41.90 61.16 48.92 63.0 Not Reported 7.16 S 5.59 SE 11.63 S No 0.000 No Precipitation 05/15/2019 01:49 AM 05/15/2019 02:52 AM 0.000 0.000 0.000 0.063 0.118 Not Reported Not Reported
05/15/2019 10:27 PM 53.60 47.66 41.90 61.16 48.92 64.0 Not Reported 8.05 S 5.37 SE 12.08 S No 0.000 No Precipitation 05/15/2019 01:49 AM 05/15/2019 02:52 AM 0.000 0.000 0.000 0.035 0.118 Not Reported Not Reported
05/15/2019 10:44 PM 53.24 47.48 41.90 61.16 48.92 65.0 Not Reported 5.37 S 10.96 S 11.41 S No 0.000 No Precipitation 05/15/2019 01:49 AM 05/15/2019 02:52 AM 0.000 0.000 0.000 0.008 0.118 Not Reported Not Reported
05/15/2019 10:56 PM 52.70 47.30 42.26 61.16 48.92 67.0 Not Reported 9.17 S 12.75 S 11.63 S No 0.000 No Precipitation 05/15/2019 01:49 AM 05/15/2019 02:52 AM 0.000 0.000 0.000 0.000 0.118 Not Reported Not Reported
05/15/2019 11:12 PM 52.16 47.30 42.62 61.16 48.92 69.0 Not Reported 5.37 SE 5.37 SE 10.29 SE No 0.000 No Precipitation 05/15/2019 01:49 AM 05/15/2019 02:52 AM 0.000 0.000 0.000 0.000 0.118 Not Reported Not Reported
05/15/2019 11:27 PM 51.80 47.30 42.80 61.16 48.92 71.0 Not Reported 6.04 S 5.37 NE 14.76 S No 0.000 No Precipitation 05/15/2019 01:49 AM 05/15/2019 02:52 AM 0.000 0.000 0.000 0.000 0.118 Not Reported Not Reported
05/15/2019 11:43 PM 51.26 46.40 41.72 61.16 48.92 69.0 Not Reported 8.50 S 5.59 S 13.87 S No 0.000 No Precipitation 05/15/2019 01:49 AM 05/15/2019 02:52 AM 0.000 0.000 0.000 0.000 0.118 Not Reported Not Reported
05/15/2019 11:56 PM 50.72 46.40 42.26 61.16 48.92 72.0 Not Reported 4.03 S 6.71 S 10.29 S No 0.000 No Precipitation 05/15/2019 01:49 AM 05/15/2019 02:52 AM 0.000 0.000 0.000 0.000 0.118 Not Reported Not Reported